sensor_id;sensor_type;location;lat;lon;timestamp;pressure;altitude;pressure_sealevel;temperature;humidity
83104;BME280;72975;48.134;11.630;2024-02-28T00:02:18;95279.59;;;6.38;74.63
83104;BME280;72975;48.134;11.630;2024-02-28T00:04:47;95290.44;;;6.35;74.95
83104;BME280;72975;48.134;11.630;2024-02-28T00:07:15;95287.22;;;6.28;75.24
83104;BME280;72975;48.134;11.630;2024-02-28T00:09:47;95291.03;;;6.42;74.92
83104;BME280;72975;48.134;11.630;2024-02-28T00:12:15;95290.09;;;6.26;75.72
83104;BME280;72975;48.134;11.630;2024-02-28T00:14:57;95296.94;;;6.59;74.13
83104;BME280;72975;48.134;11.630;2024-02-28T00:17:45;95295.06;;;6.54;74.46
83104;BME280;72975;48.134;11.630;2024-02-28T00:20:12;95288.63;;;6.57;74.11
83104;BME280;72975;48.134;11.630;2024-02-28T00:22:41;95291.69;;;6.54;74.38
83104;BME280;72975;48.134;11.630;2024-02-28T00:25:10;95290.31;;;6.46;75.23
83104;BME280;72975;48.134;11.630;2024-02-28T00:27:39;95287.78;;;6.30;75.74
83104;BME280;72975;48.134;11.630;2024-02-28T00:30:07;95294.09;;;6.39;75.51
83104;BME280;72975;48.134;11.630;2024-02-28T00:32:35;95293.81;;;6.35;75.79
83104;BME280;72975;48.134;11.630;2024-02-28T00:35:03;95300.56;;;6.36;75.75
83104;BME280;72975;48.134;11.630;2024-02-28T00:37:31;95303.31;;;6.51;74.93
83104;BME280;72975;48.134;11.630;2024-02-28T00:39:59;95310.03;;;6.26;76.51
83104;BME280;72975;48.134;11.630;2024-02-28T00:42:29;95313.34;;;6.43;75.79
83104;BME280;72975;48.134;11.630;2024-02-28T00:44:57;95316.47;;;6.45;75.67
83104;BME280;72975;48.134;11.630;2024-02-28T00:47:25;95321.06;;;6.38;75.83
83104;BME280;72975;48.134;11.630;2024-02-28T00:49:56;95314.53;;;6.57;75.01
83104;BME280;72975;48.134;11.630;2024-02-28T00:52:24;95319.19;;;6.55;74.65
83104;BME280;72975;48.134;11.630;2024-02-28T00:54:53;95324.69;;;6.58;74.77
83104;BME280;72975;48.134;11.630;2024-02-28T00:57:23;95337.88;;;6.57;74.64
83104;BME280;72975;48.134;11.630;2024-02-28T00:59:51;95331.06;;;6.51;75.35
83104;BME280;72975;48.134;11.630;2024-02-28T01:02:22;95336.91;;;6.63;74.50
83104;BME280;72975;48.134;11.630;2024-02-28T01:04:50;95350.88;;;6.40;75.74
83104;BME280;72975;48.134;11.630;2024-02-28T01:07:20;95350.72;;;6.47;75.44
83104;BME280;72975;48.134;11.630;2024-02-28T01:09:48;95358.13;;;6.60;74.75
83104;BME280;72975;48.134;11.630;2024-02-28T01:12:17;95361.38;;;6.50;74.94
83104;BME280;72975;48.134;11.630;2024-02-28T01:14:49;95371.81;;;6.34;76.04
83104;BME280;72975;48.134;11.630;2024-02-28T01:17:19;95371.88;;;6.60;75.06
83104;BME280;72975;48.134;11.630;2024-02-28T01:19:48;95373.47;;;6.23;76.40
83104;BME280;72975;48.134;11.630;2024-02-28T01:22:17;95377.00;;;6.34;76.13
83104;BME280;72975;48.134;11.630;2024-02-28T01:24:45;95376.16;;;6.50;75.33
83104;BME280;72975;48.134;11.630;2024-02-28T01:27:13;95380.16;;;6.57;74.69
83104;BME280;72975;48.134;11.630;2024-02-28T01:29:41;95383.44;;;6.53;75.32
83104;BME280;72975;48.134;11.630;2024-02-28T01:32:09;95384.97;;;6.49;75.48
83104;BME280;72975;48.134;11.630;2024-02-28T01:34:38;95390.41;;;6.69;74.45
83104;BME280;72975;48.134;11.630;2024-02-28T01:37:05;95395.19;;;6.39;76.00
83104;BME280;72975;48.134;11.630;2024-02-28T01:39:41;95387.50;;;6.66;74.47
83104;BME280;72975;48.134;11.630;2024-02-28T01:42:09;95386.59;;;6.55;75.42
83104;BME280;72975;48.134;11.630;2024-02-28T01:44:47;95385.59;;;6.83;74.00
83104;BME280;72975;48.134;11.630;2024-02-28T01:47:16;95386.22;;;6.90;73.42
83104;BME280;72975;48.134;11.630;2024-02-28T01:49:46;95380.03;;;6.69;74.28
83104;BME280;72975;48.134;11.630;2024-02-28T01:52:15;95385.69;;;6.66;74.43
83104;BME280;72975;48.134;11.630;2024-02-28T01:54:44;95384.94;;;6.71;74.38
83104;BME280;72975;48.134;11.630;2024-02-28T01:57:14;95378.50;;;6.73;74.15
83104;BME280;72975;48.134;11.630;2024-02-28T01:59:51;95371.22;;;6.48;75.49
83104;BME280;72975;48.134;11.630;2024-02-28T02:02:22;95368.56;;;6.43;75.85
83104;BME280;72975;48.134;11.630;2024-02-28T02:08:02;95362.28;;;6.39;76.01
83104;BME280;72975;48.134;11.630;2024-02-28T02:10:32;95374.75;;;6.42;75.75
83104;BME280;72975;48.134;11.630;2024-02-28T02:13:07;95380.38;;;6.56;75.10
83104;BME280;72975;48.134;11.630;2024-02-28T02:15:36;95382.75;;;6.19;77.04
83104;BME280;72975;48.134;11.630;2024-02-28T02:18:07;95380.72;;;6.43;76.34
83104;BME280;72975;48.134;11.630;2024-02-28T02:20:38;95381.94;;;6.35;76.38
83104;BME280;72975;48.134;11.630;2024-02-28T02:23:09;95378.84;;;6.38;76.31
83104;BME280;72975;48.134;11.630;2024-02-28T02:25:55;95375.13;;;6.51;75.56
83104;BME280;72975;48.134;11.630;2024-02-28T02:28:25;95376.47;;;6.53;75.59
83104;BME280;72975;48.134;11.630;2024-02-28T02:30:53;95370.81;;;6.56;75.14
83104;BME280;72975;48.134;11.630;2024-02-28T02:33:21;95366.88;;;6.54;75.50
83104;BME280;72975;48.134;11.630;2024-02-28T02:35:51;95365.06;;;6.54;75.62
83104;BME280;72975;48.134;11.630;2024-02-28T02:38:21;95367.59;;;6.49;75.63
83104;BME280;72975;48.134;11.630;2024-02-28T02:40:52;95376.63;;;6.08;77.62
83104;BME280;72975;48.134;11.630;2024-02-28T02:43:20;95380.97;;;6.41;76.48
83104;BME280;72975;48.134;11.630;2024-02-28T02:45:50;95374.06;;;6.47;75.65
83104;BME280;72975;48.134;11.630;2024-02-28T02:48:18;95378.97;;;6.27;76.96
83104;BME280;72975;48.134;11.630;2024-02-28T02:50:46;95382.88;;;6.29;76.34
83104;BME280;72975;48.134;11.630;2024-02-28T02:53:14;95380.16;;;6.19;76.98
83104;BME280;72975;48.134;11.630;2024-02-28T02:55:42;95389.03;;;6.23;76.87
83104;BME280;72975;48.134;11.630;2024-02-28T02:58:10;95386.84;;;6.15;77.15
83104;BME280;72975;48.134;11.630;2024-02-28T03:00:37;95394.91;;;6.18;77.02
83104;BME280;72975;48.134;11.630;2024-02-28T03:03:07;95396.72;;;6.18;76.94
83104;BME280;72975;48.134;11.630;2024-02-28T03:05:35;95398.63;;;6.06;77.67
83104;BME280;72975;48.134;11.630;2024-02-28T03:08:05;95400.50;;;6.10;77.32
83104;BME280;72975;48.134;11.630;2024-02-28T03:10:33;95400.75;;;6.09;77.48
83104;BME280;72975;48.134;11.630;2024-02-28T03:13:01;95397.75;;;6.17;77.01
83104;BME280;72975;48.134;11.630;2024-02-28T03:15:29;95405.59;;;6.22;76.62
83104;BME280;72975;48.134;11.630;2024-02-28T03:17:57;95399.34;;;6.01;77.81
83104;BME280;72975;48.134;11.630;2024-02-28T03:20:32;95400.81;;;6.14;77.32
83104;BME280;72975;48.134;11.630;2024-02-28T03:23:04;95397.78;;;5.83;77.94
83104;BME280;72975;48.134;11.630;2024-02-28T03:25:34;95411.69;;;5.94;77.50
83104;BME280;72975;48.134;11.630;2024-02-28T03:32:15;95409.94;;;5.83;77.81
83104;BME280;72975;48.134;11.630;2024-02-28T03:34:42;95417.59;;;5.78;77.81
83104;BME280;72975;48.134;11.630;2024-02-28T03:37:10;95420.19;;;5.78;77.85
83104;BME280;72975;48.134;11.630;2024-02-28T03:39:38;95418.47;;;5.83;77.64
83104;BME280;72975;48.134;11.630;2024-02-28T03:42:07;95427.72;;;5.79;77.72
83104;BME280;72975;48.134;11.630;2024-02-28T03:44:35;95436.97;;;5.75;77.23
83104;BME280;72975;48.134;11.630;2024-02-28T03:47:02;95435.00;;;5.94;76.83
83104;BME280;72975;48.134;11.630;2024-02-28T03:49:31;95437.59;;;5.94;76.87
83104;BME280;72975;48.134;11.630;2024-02-28T03:51:59;95438.88;;;5.80;77.17
83104;BME280;72975;48.134;11.630;2024-02-28T03:54:28;95445.91;;;5.68;77.68
83104;BME280;72975;48.134;11.630;2024-02-28T03:56:55;95447.47;;;5.52;77.88
83104;BME280;72975;48.134;11.630;2024-02-28T03:59:25;95452.59;;;5.80;77.00
83104;BME280;72975;48.134;11.630;2024-02-28T04:01:52;95448.28;;;5.69;77.03
83104;BME280;72975;48.134;11.630;2024-02-28T04:04:20;95451.50;;;5.76;77.15
83104;BME280;72975;48.134;11.630;2024-02-28T04:06:48;95459.88;;;5.67;77.33
83104;BME280;72975;48.134;11.630;2024-02-28T04:09:16;95454.09;;;5.76;76.93
83104;BME280;72975;48.134;11.630;2024-02-28T04:11:46;95458.94;;;5.56;77.58
83104;BME280;72975;48.134;11.630;2024-02-28T04:14:18;95466.00;;;5.77;76.77
83104;BME280;72975;48.134;11.630;2024-02-28T04:16:48;95468.13;;;5.80;76.75
83104;BME280;72975;48.134;11.630;2024-02-28T04:19:17;95470.50;;;5.82;76.58
83104;BME280;72975;48.134;11.630;2024-02-28T04:21:45;95475.88;;;5.64;77.15
83104;BME280;72975;48.134;11.630;2024-02-28T04:24:13;95472.50;;;5.63;77.21
83104;BME280;72975;48.134;11.630;2024-02-28T04:26:47;95478.88;;;5.72;76.68
83104;BME280;72975;48.134;11.630;2024-02-28T04:29:14;95485.16;;;5.76;76.58
83104;BME280;72975;48.134;11.630;2024-02-28T04:31:42;95487.00;;;5.64;77.25
83104;BME280;72975;48.134;11.630;2024-02-28T04:34:10;95483.13;;;5.78;76.18
83104;BME280;72975;48.134;11.630;2024-02-28T04:36:39;95494.41;;;5.44;77.86
83104;BME280;72975;48.134;11.630;2024-02-28T04:39:07;95498.91;;;5.48;78.09
83104;BME280;72975;48.134;11.630;2024-02-28T04:41:35;95499.84;;;5.71;77.01
83104;BME280;72975;48.134;11.630;2024-02-28T04:44:03;95500.38;;;5.73;76.63
83104;BME280;72975;48.134;11.630;2024-02-28T04:46:35;95496.06;;;5.78;76.67
83104;BME280;72975;48.134;11.630;2024-02-28T04:49:04;95497.16;;;5.94;75.87
83104;BME280;72975;48.134;11.630;2024-02-28T04:51:33;95505.59;;;5.90;75.94
83104;BME280;72975;48.134;11.630;2024-02-28T04:54:04;95505.88;;;6.05;75.18
83104;BME280;72975;48.134;11.630;2024-02-28T04:56:32;95504.59;;;6.07;75.16
83104;BME280;72975;48.134;11.630;2024-02-28T04:59:01;95513.03;;;6.14;74.96
83104;BME280;72975;48.134;11.630;2024-02-28T05:01:29;95512.22;;;5.85;76.29
83104;BME280;72975;48.134;11.630;2024-02-28T05:04:00;95450.66;;;5.14;77.25
83104;BME280;72975;48.134;11.630;2024-02-28T05:06:29;95519.94;;;5.80;76.54
83104;BME280;72975;48.134;11.630;2024-02-28T05:09:00;95523.59;;;5.68;77.06
83104;BME280;72975;48.134;11.630;2024-02-28T05:11:32;95515.63;;;5.58;77.44
83104;BME280;72975;48.134;11.630;2024-02-28T05:14:00;95526.97;;;5.68;77.15
83104;BME280;72975;48.134;11.630;2024-02-28T05:16:28;95527.13;;;5.90;75.91
83104;BME280;72975;48.134;11.630;2024-02-28T05:18:56;95520.13;;;5.91;75.77
83104;BME280;72975;48.134;11.630;2024-02-28T05:21:23;95516.81;;;5.95;75.65
83104;BME280;72975;48.134;11.630;2024-02-28T05:23:53;95528.94;;;5.78;76.09
83104;BME280;72975;48.134;11.630;2024-02-28T05:26:21;95528.78;;;5.84;76.24
83104;BME280;72975;48.134;11.630;2024-02-28T05:28:49;95533.88;;;5.91;75.93
83104;BME280;72975;48.134;11.630;2024-02-28T05:31:23;95540.41;;;5.94;75.80
83104;BME280;72975;48.134;11.630;2024-02-28T05:33:56;95544.06;;;5.98;75.76
83104;BME280;72975;48.134;11.630;2024-02-28T05:36:28;95551.47;;;5.77;76.79
83104;BME280;72975;48.134;11.630;2024-02-28T05:39:03;95551.78;;;5.81;76.62
83104;BME280;72975;48.134;11.630;2024-02-28T05:41:35;95556.06;;;5.75;76.89
83104;BME280;72975;48.134;11.630;2024-02-28T05:44:03;95557.88;;;5.75;77.13
83104;BME280;72975;48.134;11.630;2024-02-28T05:46:33;95555.84;;;5.77;76.53
83104;BME280;72975;48.134;11.630;2024-02-28T05:49:06;95565.19;;;5.90;76.08
83104;BME280;72975;48.134;11.630;2024-02-28T05:51:34;95567.00;;;6.06;75.49
83104;BME280;72975;48.134;11.630;2024-02-28T05:54:03;95582.94;;;5.98;75.41
83104;BME280;72975;48.134;11.630;2024-02-28T05:56:33;95584.16;;;5.95;75.71
83104;BME280;72975;48.134;11.630;2024-02-28T05:59:03;95577.75;;;5.86;75.95
83104;BME280;72975;48.134;11.630;2024-02-28T06:01:31;95590.47;;;5.87;75.80
83104;BME280;72975;48.134;11.630;2024-02-28T06:03:59;95594.88;;;5.87;76.00
83104;BME280;72975;48.134;11.630;2024-02-28T06:06:27;95593.44;;;5.79;75.96
83104;BME280;72975;48.134;11.630;2024-02-28T06:09:06;95599.97;;;5.94;75.76
83104;BME280;72975;48.134;11.630;2024-02-28T06:11:39;95599.72;;;5.95;75.49
83104;BME280;72975;48.134;11.630;2024-02-28T06:14:07;95606.16;;;5.93;75.38
83104;BME280;72975;48.134;11.630;2024-02-28T06:16:35;95605.44;;;5.97;75.42
83104;BME280;72975;48.134;11.630;2024-02-28T06:19:05;95606.63;;;5.78;76.06
83104;BME280;72975;48.134;11.630;2024-02-28T06:21:33;95612.34;;;5.92;75.22
83104;BME280;72975;48.134;11.630;2024-02-28T06:24:01;95616.06;;;5.84;75.87
83104;BME280;72975;48.134;11.630;2024-02-28T06:26:35;95622.16;;;5.78;76.10
83104;BME280;72975;48.134;11.630;2024-02-28T06:29:02;95616.38;;;5.87;75.82
83104;BME280;72975;48.134;11.630;2024-02-28T06:31:39;95625.59;;;5.95;75.43
83104;BME280;72975;48.134;11.630;2024-02-28T06:34:07;95646.38;;;5.83;75.81
83104;BME280;72975;48.134;11.630;2024-02-28T06:36:41;95641.41;;;5.82;75.98
83104;BME280;72975;48.134;11.630;2024-02-28T06:39:09;95650.31;;;5.74;76.12
83104;BME280;72975;48.134;11.630;2024-02-28T06:41:37;95655.75;;;5.73;76.46
83104;BME280;72975;48.134;11.630;2024-02-28T06:44:04;95654.19;;;5.60;77.30
83104;BME280;72975;48.134;11.630;2024-02-28T06:46:31;95656.84;;;5.89;75.96
83104;BME280;72975;48.134;11.630;2024-02-28T06:48:59;95664.63;;;5.65;76.64
83104;BME280;72975;48.134;11.630;2024-02-28T06:51:26;95667.78;;;5.67;77.26
83104;BME280;72975;48.134;11.630;2024-02-28T06:53:58;95663.28;;;5.63;77.01
83104;BME280;72975;48.134;11.630;2024-02-28T06:56:32;95662.28;;;5.52;77.40
83104;BME280;72975;48.134;11.630;2024-02-28T06:59:07;95668.13;;;5.71;76.70
83104;BME280;72975;48.134;11.630;2024-02-28T07:01:35;95669.66;;;5.83;75.93
83104;BME280;72975;48.134;11.630;2024-02-28T07:04:09;95668.09;;;5.82;75.98
83104;BME280;72975;48.134;11.630;2024-02-28T07:06:55;95676.97;;;5.75;76.09
83104;BME280;72975;48.134;11.630;2024-02-28T07:09:23;95671.34;;;5.78;76.19
83104;BME280;72975;48.134;11.630;2024-02-28T07:11:56;95681.72;;;5.78;76.08
83104;BME280;72975;48.134;11.630;2024-02-28T07:14:26;95690.38;;;5.83;76.13
83104;BME280;72975;48.134;11.630;2024-02-28T07:16:54;95686.25;;;5.71;76.46
83104;BME280;72975;48.134;11.630;2024-02-28T07:19:27;95681.75;;;5.66;77.08
83104;BME280;72975;48.134;11.630;2024-02-28T07:22:04;95682.75;;;5.65;76.99
83104;BME280;72975;48.134;11.630;2024-02-28T07:24:48;95691.28;;;5.77;76.86
83104;BME280;72975;48.134;11.630;2024-02-28T07:27:16;95687.47;;;5.68;76.96
83104;BME280;72975;48.134;11.630;2024-02-28T07:29:46;95685.34;;;5.54;77.16
83104;BME280;72975;48.134;11.630;2024-02-28T07:32:14;95690.16;;;5.73;76.62
83104;BME280;72975;48.134;11.630;2024-02-28T07:34:46;95692.84;;;5.78;76.25
83104;BME280;72975;48.134;11.630;2024-02-28T07:37:15;95682.28;;;5.80;76.29
83104;BME280;72975;48.134;11.630;2024-02-28T07:39:42;95680.16;;;5.89;75.99
83104;BME280;72975;48.134;11.630;2024-02-28T07:42:10;95679.91;;;5.90;75.95
83104;BME280;72975;48.134;11.630;2024-02-28T07:44:38;95683.84;;;5.81;76.30
83104;BME280;72975;48.134;11.630;2024-02-28T07:47:09;95681.94;;;5.88;75.66
83104;BME280;72975;48.134;11.630;2024-02-28T07:49:37;95684.44;;;5.71;76.26
83104;BME280;72975;48.134;11.630;2024-02-28T07:52:08;95687.13;;;5.76;76.14
83104;BME280;72975;48.134;11.630;2024-02-28T07:54:44;95686.75;;;5.84;75.98
83104;BME280;72975;48.134;11.630;2024-02-28T07:57:15;95682.69;;;6.00;75.32
83104;BME280;72975;48.134;11.630;2024-02-28T07:59:45;95694.72;;;6.06;74.98
83104;BME280;72975;48.134;11.630;2024-02-28T08:02:15;95697.91;;;5.85;75.42
83104;BME280;72975;48.134;11.630;2024-02-28T08:04:48;95705.66;;;5.85;75.58
83104;BME280;72975;48.134;11.630;2024-02-28T08:07:23;95700.75;;;5.83;76.05
83104;BME280;72975;48.134;11.630;2024-02-28T08:09:51;95710.44;;;5.88;75.54
83104;BME280;72975;48.134;11.630;2024-02-28T08:12:22;95702.66;;;5.88;75.68
83104;BME280;72975;48.134;11.630;2024-02-28T08:14:50;95709.19;;;5.91;76.07
83104;BME280;72975;48.134;11.630;2024-02-28T08:17:18;95718.09;;;5.83;75.85
83104;BME280;72975;48.134;11.630;2024-02-28T08:19:45;95716.59;;;5.87;76.38
83104;BME280;72975;48.134;11.630;2024-02-28T08:22:13;95725.06;;;5.94;75.26
83104;BME280;72975;48.134;11.630;2024-02-28T08:24:41;95725.66;;;5.73;76.33
83104;BME280;72975;48.134;11.630;2024-02-28T08:27:13;95722.06;;;5.62;76.64
83104;BME280;72975;48.134;11.630;2024-02-28T08:29:48;95729.56;;;5.75;76.25
83104;BME280;72975;48.134;11.630;2024-02-28T08:32:17;95728.19;;;5.84;75.79
83104;BME280;72975;48.134;11.630;2024-02-28T08:34:46;95734.06;;;6.03;74.99
83104;BME280;72975;48.134;11.630;2024-02-28T08:37:14;95733.94;;;5.98;75.47
83104;BME280;72975;48.134;11.630;2024-02-28T08:39:42;95733.75;;;5.88;75.93
83104;BME280;72975;48.134;11.630;2024-02-28T08:42:10;95729.69;;;5.92;75.48
83104;BME280;72975;48.134;11.630;2024-02-28T08:44:37;95730.34;;;5.99;75.41
83104;BME280;72975;48.134;11.630;2024-02-28T08:47:05;95732.66;;;6.24;74.56
83104;BME280;72975;48.134;11.630;2024-02-28T08:49:38;95734.53;;;6.29;74.20
83104;BME280;72975;48.134;11.630;2024-02-28T08:52:06;95744.94;;;6.17;74.59
83104;BME280;72975;48.134;11.630;2024-02-28T08:54:34;95735.69;;;6.21;74.36
83104;BME280;72975;48.134;11.630;2024-02-28T08:57:02;95690.84;;;5.80;74.71
83104;BME280;72975;48.134;11.630;2024-02-28T08:59:31;95741.53;;;6.28;74.59
83104;BME280;72975;48.134;11.630;2024-02-28T09:01:59;95750.88;;;6.29;74.36
83104;BME280;72975;48.134;11.630;2024-02-28T09:04:27;95754.97;;;6.25;75.35
83104;BME280;72975;48.134;11.630;2024-02-28T09:06:56;95751.44;;;6.31;74.36
83104;BME280;72975;48.134;11.630;2024-02-28T09:09:27;95752.22;;;6.32;74.31
83104;BME280;72975;48.134;11.630;2024-02-28T09:12:12;95750.34;;;6.27;74.36
83104;BME280;72975;48.134;11.630;2024-02-28T09:14:40;95753.00;;;6.32;74.17
83104;BME280;72975;48.134;11.630;2024-02-28T09:17:08;95758.06;;;6.39;74.26
83104;BME280;72975;48.134;11.630;2024-02-28T09:19:41;95753.84;;;6.21;74.81
83104;BME280;72975;48.134;11.630;2024-02-28T09:22:13;95765.94;;;6.44;73.94
83104;BME280;72975;48.134;11.630;2024-02-28T09:24:42;95765.28;;;6.37;73.86
83104;BME280;72975;48.134;11.630;2024-02-28T09:27:15;95774.41;;;6.28;74.39
83104;BME280;72975;48.134;11.630;2024-02-28T09:29:48;95772.53;;;6.23;74.72
83104;BME280;72975;48.134;11.630;2024-02-28T09:32:16;95783.88;;;6.34;74.35
83104;BME280;72975;48.134;11.630;2024-02-28T09:34:47;95782.16;;;6.39;73.74
83104;BME280;72975;48.134;11.630;2024-02-28T09:37:18;95778.00;;;6.38;73.94
83104;BME280;72975;48.134;11.630;2024-02-28T09:39:49;95782.06;;;6.46;73.86
83104;BME280;72975;48.134;11.630;2024-02-28T09:42:17;95781.44;;;6.55;73.43
83104;BME280;72975;48.134;11.630;2024-02-28T09:44:49;95782.44;;;6.66;73.02
83104;BME280;72975;48.134;11.630;2024-02-28T09:47:26;95786.50;;;6.62;73.27
83104;BME280;72975;48.134;11.630;2024-02-28T09:49:58;95787.31;;;6.51;73.48
83104;BME280;72975;48.134;11.630;2024-02-28T09:52:26;95786.00;;;6.48;73.83
83104;BME280;72975;48.134;11.630;2024-02-28T09:54:55;95781.81;;;6.47;74.03
83104;BME280;72975;48.134;11.630;2024-02-28T09:57:24;95792.00;;;6.66;73.45
83104;BME280;72975;48.134;11.630;2024-02-28T10:00:01;95785.09;;;6.71;73.13
83104;BME280;72975;48.134;11.630;2024-02-28T10:02:32;95785.75;;;6.50;73.92
83104;BME280;72975;48.134;11.630;2024-02-28T10:05:06;95786.19;;;6.58;74.02
83104;BME280;72975;48.134;11.630;2024-02-28T10:07:35;95722.47;;;6.34;73.30
83104;BME280;72975;48.134;11.630;2024-02-28T10:10:10;95781.38;;;6.95;73.05
83104;BME280;72975;48.134;11.630;2024-02-28T10:12:47;95780.25;;;6.75;72.50
83104;BME280;72975;48.134;11.630;2024-02-28T10:15:19;95784.72;;;6.51;73.27
83104;BME280;72975;48.134;11.630;2024-02-28T10:17:52;95777.56;;;6.70;72.37
83104;BME280;72975;48.134;11.630;2024-02-28T10:20:22;95784.59;;;6.86;71.86
83104;BME280;72975;48.134;11.630;2024-02-28T10:22:52;95788.03;;;6.75;72.17
83104;BME280;72975;48.134;11.630;2024-02-28T10:25:31;95797.00;;;6.84;72.02
83104;BME280;72975;48.134;11.630;2024-02-28T10:28:07;95794.56;;;6.77;72.56
83104;BME280;72975;48.134;11.630;2024-02-28T10:30:42;95797.94;;;6.78;72.60
83104;BME280;72975;48.134;11.630;2024-02-28T10:33:15;95794.81;;;6.92;71.68
83104;BME280;72975;48.134;11.630;2024-02-28T10:35:43;95794.47;;;7.01;71.44
83104;BME280;72975;48.134;11.630;2024-02-28T10:38:13;95793.66;;;7.00;71.53
83104;BME280;72975;48.134;11.630;2024-02-28T10:40:41;95797.41;;;6.92;71.41
83104;BME280;72975;48.134;11.630;2024-02-28T10:43:10;95792.47;;;6.91;70.79
83104;BME280;72975;48.134;11.630;2024-02-28T10:45:39;95788.16;;;6.96;70.31
83104;BME280;72975;48.134;11.630;2024-02-28T10:48:29;95798.13;;;6.88;70.32
83104;BME280;72975;48.134;11.630;2024-02-28T10:51:15;95792.31;;;6.81;70.33
83104;BME280;72975;48.134;11.630;2024-02-28T10:54:12;95797.78;;;6.84;70.24
83104;BME280;72975;48.134;11.630;2024-02-28T10:56:43;95794.81;;;6.92;70.01
83104;BME280;72975;48.134;11.630;2024-02-28T10:59:12;95796.13;;;6.78;70.79
83104;BME280;72975;48.134;11.630;2024-02-28T11:01:42;95802.38;;;6.94;70.50
83104;BME280;72975;48.134;11.630;2024-02-28T11:04:12;95800.34;;;6.96;70.35
83104;BME280;72975;48.134;11.630;2024-02-28T11:06:52;95798.44;;;6.91;71.13
83104;BME280;72975;48.134;11.630;2024-02-28T11:09:24;95803.81;;;7.02;70.54
83104;BME280;72975;48.134;11.630;2024-02-28T11:11:56;95802.72;;;7.14;70.30
83104;BME280;72975;48.134;11.630;2024-02-28T11:14:24;95802.13;;;6.95;70.68
83104;BME280;72975;48.134;11.630;2024-02-28T11:17:06;95806.28;;;6.80;71.11
83104;BME280;72975;48.134;11.630;2024-02-28T11:19:34;95792.94;;;7.05;70.30
83104;BME280;72975;48.134;11.630;2024-02-28T11:22:04;95805.47;;;7.08;70.23
83104;BME280;72975;48.134;11.630;2024-02-28T11:24:45;95813.09;;;7.14;69.65
83104;BME280;72975;48.134;11.630;2024-02-28T11:27:13;95807.91;;;7.14;69.85
83104;BME280;72975;48.134;11.630;2024-02-28T11:29:47;95813.06;;;6.97;69.86
83104;BME280;72975;48.134;11.630;2024-02-28T11:32:18;95811.59;;;7.02;70.04
83104;BME280;72975;48.134;11.630;2024-02-28T11:34:47;95812.69;;;7.06;70.06
83104;BME280;72975;48.134;11.630;2024-02-28T11:37:19;95749.69;;;6.48;70.86
83104;BME280;72975;48.134;11.630;2024-02-28T11:39:49;95819.91;;;6.87;70.74
83104;BME280;72975;48.134;11.630;2024-02-28T11:42:17;95818.03;;;6.99;70.93
83104;BME280;72975;48.134;11.630;2024-02-28T11:44:54;95819.84;;;6.99;70.71
83104;BME280;72975;48.134;11.630;2024-02-28T11:47:34;95819.22;;;7.08;70.56
83104;BME280;72975;48.134;11.630;2024-02-28T11:50:05;95809.97;;;7.12;70.66
83104;BME280;72975;48.134;11.630;2024-02-28T11:52:44;95816.63;;;7.08;70.58
83104;BME280;72975;48.134;11.630;2024-02-28T11:55:16;95819.13;;;7.03;71.06
83104;BME280;72975;48.134;11.630;2024-02-28T11:57:44;95815.94;;;6.84;71.52
83104;BME280;72975;48.134;11.630;2024-02-28T12:00:22;95818.38;;;7.03;71.00
83104;BME280;72975;48.134;11.630;2024-02-28T12:03:04;95813.03;;;7.09;70.62
83104;BME280;72975;48.134;11.630;2024-02-28T12:05:38;95808.28;;;7.06;70.19
83104;BME280;72975;48.134;11.630;2024-02-28T12:08:06;95817.84;;;6.89;70.72
83104;BME280;72975;48.134;11.630;2024-02-28T12:10:41;95825.28;;;6.69;71.56
83104;BME280;72975;48.134;11.630;2024-02-28T12:13:10;95819.34;;;6.85;70.88
83104;BME280;72975;48.134;11.630;2024-02-28T12:15:43;95828.91;;;6.84;70.42
83104;BME280;72975;48.134;11.630;2024-02-28T12:18:14;95820.38;;;6.72;70.97
83104;BME280;72975;48.134;11.630;2024-02-28T12:21:09;95820.69;;;6.87;70.75
83104;BME280;72975;48.134;11.630;2024-02-28T12:27:45;95826.50;;;6.94;70.40
83104;BME280;72975;48.134;11.630;2024-02-28T12:30:13;95819.22;;;6.91;70.84
83104;BME280;72975;48.134;11.630;2024-02-28T12:32:43;95828.88;;;6.96;70.66
83104;BME280;72975;48.134;11.630;2024-02-28T12:35:11;95825.91;;;7.04;70.39
83104;BME280;72975;48.134;11.630;2024-02-28T12:40:26;95825.66;;;6.89;70.49
83104;BME280;72975;48.134;11.630;2024-02-28T12:43:00;95825.69;;;6.77;71.10
83104;BME280;72975;48.134;11.630;2024-02-28T12:45:28;95825.34;;;6.74;71.48
83104;BME280;72975;48.134;11.630;2024-02-28T12:47:56;95824.94;;;6.93;71.09
83104;BME280;72975;48.134;11.630;2024-02-28T12:50:24;95816.31;;;7.05;70.77
83104;BME280;72975;48.134;11.630;2024-02-28T12:52:55;95820.06;;;6.97;71.23
83104;BME280;72975;48.134;11.630;2024-02-28T12:55:22;95816.66;;;6.80;71.85
83104;BME280;72975;48.134;11.630;2024-02-28T12:57:50;95815.25;;;6.89;71.47
83104;BME280;72975;48.134;11.630;2024-02-28T13:00:18;95821.41;;;6.71;72.00
83104;BME280;72975;48.134;11.630;2024-02-28T13:02:49;95819.34;;;6.85;71.97
83104;BME280;72975;48.134;11.630;2024-02-28T13:05:17;95825.31;;;6.85;72.44
83104;BME280;72975;48.134;11.630;2024-02-28T13:07:44;95815.91;;;6.96;71.55
83104;BME280;72975;48.134;11.630;2024-02-28T13:10:12;95812.25;;;6.80;71.46
83104;BME280;72975;48.134;11.630;2024-02-28T13:12:40;95819.75;;;6.93;71.06
83104;BME280;72975;48.134;11.630;2024-02-28T13:15:08;95816.31;;;7.05;70.91
83104;BME280;72975;48.134;11.630;2024-02-28T13:17:36;95816.06;;;7.06;70.84
83104;BME280;72975;48.134;11.630;2024-02-28T13:20:04;95820.97;;;7.03;70.98
83104;BME280;72975;48.134;11.630;2024-02-28T13:22:32;95817.59;;;7.19;70.22
83104;BME280;72975;48.134;11.630;2024-02-28T13:24:59;95822.63;;;7.09;70.25
83104;BME280;72975;48.134;11.630;2024-02-28T13:27:28;95831.56;;;7.01;70.42
83104;BME280;72975;48.134;11.630;2024-02-28T13:29:55;95813.97;;;7.20;70.15
83104;BME280;72975;48.134;11.630;2024-02-28T13:32:24;95826.44;;;7.06;69.75